Time;durP1;ratioP1;P1;durP2;ratioP2;P2;SDS_P1;SDS_P2;PMS_P1;PMS_P2;Temp;Humidity;BMP_temperature;BMP_pressure;BME280_temperature;BME280_humidity;BME280_pressure;Samples;Min_cycle;Max_cycle;Signal;HPM_P1;HPM_P2
2022/04/22 00:01:48;;;;;;;23.58;11.85;;;;;;;;;;10474087;28;20032;-76
2022/04/22 00:06:48;;;;;;;24.50;11.07;;;;;;;;;;10472909;28;20016;-76
2022/04/22 00:11:48;;;;;;;18.02;11.65;;;;;;;;;;10472476;28;20472;-71
2022/04/22 00:16:49;;;;;;;19.25;11.25;;;;;;;;;;10472056;28;20030;-70
2022/04/22 00:21:49;;;;;;;24.33;12.20;;;;;;;;;;10472055;28;20089;-70
2022/04/22 00:26:49;;;;;;;18.67;11.77;;;;;;;;;;10474205;28;20108;-70
2022/04/22 00:31:49;;;;;;;23.45;11.88;;;;;;;;;;10424746;28;20053;-70
2022/04/22 00:36:50;;;;;;;25.05;12.18;;;;;;;;;;10389448;28;20029;-74
2022/04/22 00:41:50;;;;;;;19.15;10.77;;;;;;;;;;10406706;28;20087;-71
2022/04/22 00:46:51;;;;;;;18.00;10.70;;;;;;;;;;10407502;28;20032;-72
2022/04/22 00:51:51;;;;;;;21.42;11.90;;;;;;;;;;10372550;28;20298;-74
2022/04/22 00:56:51;;;;;;;27.63;11.57;;;;;;;;;;10372880;28;20021;-74
2022/04/22 01:01:52;;;;;;;21.13;10.75;;;;;;;;;;10388236;28;20025;-71
2022/04/22 01:12:11;;;;;;;21.15;10.82;;;;;;;;;;10406139;28;20049;-71
2022/04/22 01:17:12;;;;;;;14.52;9.55;;;;;;;;;;10387812;28;20104;-70
2022/04/22 01:22:13;;;;;;;20.15;10.60;;;;;;;;;;10387863;28;20028;-72
2022/04/22 01:27:14;;;;;;;18.77;9.70;;;;;;;;;;10389241;28;20465;-71
2022/04/22 01:32:14;;;;;;;14.00;8.05;;;;;;;;;;10413689;28;20190;-73
2022/04/22 01:37:14;;;;;;;14.10;6.72;;;;;;;;;;10446044;28;20488;-72
2022/04/22 01:42:15;;;;;;;11.60;6.50;;;;;;;;;;10450040;28;20484;-70
2022/04/22 01:47:15;;;;;;;17.15;7.28;;;;;;;;;;10427634;28;20347;-72
2022/04/22 01:52:16;;;;;;;14.98;7.03;;;;;;;;;;10426993;28;20555;-71
2022/04/22 01:57:16;;;;;;;12.23;7.27;;;;;;;;;;10443415;28;20198;-70
2022/04/22 02:02:17;;;;;;;13.80;8.30;;;;;;;;;;10443346;28;20017;-71
2022/04/22 02:07:17;;;;;;;19.33;9.77;;;;;;;;;;10426887;28;20384;-71
2022/04/22 02:12:17;;;;;;;16.07;10.27;;;;;;;;;;10409760;28;20027;-69
2022/04/22 02:17:18;;;;;;;21.08;13.23;;;;;;;;;;10426651;28;20041;-74
2022/04/22 02:22:18;;;;;;;24.90;13.13;;;;;;;;;;10444321;28;20024;-75
2022/04/22 02:32:38;;;;;;;21.40;13.00;;;;;;;;;;10454816;28;20129;-70
2022/04/22 02:37:38;;;;;;;22.47;12.87;;;;;;;;;;10467284;28;20020;-71
2022/04/22 02:47:58;;;;;;;26.38;11.85;;;;;;;;;;10484915;28;20028;-70
2022/04/22 02:52:58;;;;;;;18.40;11.20;;;;;;;;;;10466736;28;20025;-71
2022/04/22 02:57:59;;;;;;;21.63;10.95;;;;;;;;;;10466985;28;20028;-75
2022/04/22 03:02:59;;;;;;;15.67;10.43;;;;;;;;;;10466558;28;20029;-73
2022/04/22 03:08:01;;;;;;;15.75;9.55;;;;;;;;;;10465953;28;20278;-71
2022/04/22 03:13:03;;;;;;;19.08;10.25;;;;;;;;;;10466253;28;20016;-71
2022/04/22 03:18:04;;;;;;;18.48;9.32;;;;;;;;;;10466047;28;20039;-72
2022/04/22 03:23:05;;;;;;;16.45;7.97;;;;;;;;;;10466131;28;20614;-78
2022/04/22 03:28:05;;;;;;;11.63;7.43;;;;;;;;;;10466226;28;20027;-72
2022/04/22 03:33:06;;;;;;;15.25;8.57;;;;;;;;;;10465296;28;20500;-71
2022/04/22 03:38:06;;;;;;;14.00;8.50;;;;;;;;;;10483273;28;20104;-75
2022/04/22 03:43:07;;;;;;;23.33;9.70;;;;;;;;;;10466199;28;20393;-71
2022/04/22 03:48:07;;;;;;;20.77;11.07;;;;;;;;;;10466022;28;20502;-71
2022/04/22 03:53:11;;;;;;;20.20;11.63;;;;;;;;;;10466445;28;20392;-71
2022/04/22 03:58:12;;;;;;;21.35;11.85;;;;;;;;;;10467453;28;20035;-74
2022/04/22 04:03:14;;;;;;;22.95;12.80;;;;;;;;;;10449253;28;20040;-73
2022/04/22 04:08:16;;;;;;;25.10;12.88;;;;;;;;;;10466185;28;20028;-71
2022/04/22 04:18:37;;;;;;;21.10;13.07;;;;;;;;;;10491025;28;20024;-72
2022/04/22 04:23:37;;;;;;;28.35;14.45;;;;;;;;;;10473439;28;20032;-70
2022/04/22 04:28:38;;;;;;;23.40;12.85;;;;;;;;;;10491435;28;20024;-74
2022/04/22 04:33:40;;;;;;;25.58;13.18;;;;;;;;;;10490798;28;20065;-74
2022/04/22 04:38:41;;;;;;;28.80;13.68;;;;;;;;;;10490128;28;20063;-77
2022/04/22 04:43:42;;;;;;;21.73;12.02;;;;;;;;;;10472176;28;20025;-76
2022/04/22 04:48:42;;;;;;;22.98;12.02;;;;;;;;;;10466011;28;20017;-74
2022/04/22 04:53:42;;;;;;;18.95;11.20;;;;;;;;;;10470029;28;20016;-73
2022/04/22 04:58:43;;;;;;;22.80;11.77;;;;;;;;;;10467655;28;20487;-72
2022/04/22 05:03:43;;;;;;;19.50;11.15;;;;;;;;;;10470507;28;20021;-77
2022/04/22 05:08:43;;;;;;;20.15;10.10;;;;;;;;;;10468230;28;20074;-75
2022/04/22 05:13:44;;;;;;;20.27;8.77;;;;;;;;;;10488648;28;20016;-74
2022/04/22 05:18:44;;;;;;;15.68;8.70;;;;;;;;;;10450412;28;20025;-74
2022/04/22 05:23:44;;;;;;;15.57;8.88;;;;;;;;;;10429739;28;20013;-73
2022/04/22 05:28:45;;;;;;;16.33;9.27;;;;;;;;;;10442063;28;20029;-76
2022/04/22 05:33:45;;;;;;;20.77;9.55;;;;;;;;;;10456186;28;20060;-72
2022/04/22 05:38:46;;;;;;;14.60;9.05;;;;;;;;;;10441843;28;20116;-73
2022/04/22 05:43:46;;;;;;;21.83;11.37;;;;;;;;;;10433838;28;20120;-72
2022/04/22 05:48:46;;;;;;;19.23;11.65;;;;;;;;;;10431791;28;20727;-73
2022/04/22 05:53:48;;;;;;;18.80;11.00;;;;;;;;;;10430810;28;20548;-73
2022/04/22 05:58:48;;;;;;;17.83;9.98;;;;;;;;;;10433930;28;20025;-72
2022/04/22 06:03:48;;;;;;;16.80;10.82;;;;;;;;;;10431863;28;20035;-74
2022/04/22 06:14:09;;;;;;;20.85;9.88;;;;;;;;;;10466153;28;20076;-69
2022/04/22 06:19:09;;;;;;;17.05;9.30;;;;;;;;;;10465974;28;20040;-69
2022/04/22 06:24:10;;;;;;;15.68;7.20;;;;;;;;;;10454436;28;20086;-73
2022/04/22 06:29:10;;;;;;;8.63;6.03;;;;;;;;;;10450149;28;20108;-70
2022/04/22 06:34:11;;;;;;;10.20;6.78;;;;;;;;;;10434213;28;20057;-70
2022/04/22 06:39:12;;;;;;;12.88;7.32;;;;;;;;;;10449378;28;20037;-74
2022/04/22 06:49:32;;;;;;;15.90;7.65;;;;;;;;;;10451766;28;20033;-74
2022/04/22 06:54:32;;;;;;;11.70;7.60;;;;;;;;;;10443036;28;20024;-74
2022/04/22 06:59:33;;;;;;;12.00;5.47;;;;;;;;;;10463575;28;20267;-74
2022/04/22 07:04:33;;;;;;;11.18;6.15;;;;;;;;;;10453858;28;20035;-72
2022/04/22 07:09:34;;;;;;;11.85;5.20;;;;;;;;;;10457858;28;20023;-72
2022/04/22 07:14:35;;;;;;;10.13;5.50;;;;;;;;;;10427109;28;20111;-73
2022/04/22 07:19:36;;;;;;;7.13;4.53;;;;;;;;;;10450554;28;20271;-77
2022/04/22 07:24:36;;;;;;;9.10;4.85;;;;;;;;;;10448540;28;20041;-74
2022/04/22 07:29:37;;;;;;;11.40;4.97;;;;;;;;;;10462329;28;20025;-76
2022/04/22 07:34:37;;;;;;;11.05;4.28;;;;;;;;;;10426145;28;20056;-69
2022/04/22 07:39:39;;;;;;;9.80;5.37;;;;;;;;;;10451700;28;20033;-73
2022/04/22 07:49:58;;;;;;;7.63;4.10;;;;;;;;;;10447087;28;20335;-74
2022/04/22 07:54:59;;;;;;;14.43;5.20;;;;;;;;;;10437781;28;20488;-73
2022/04/22 07:59:59;;;;;;;9.27;4.32;;;;;;;;;;10440723;28;20431;-73
2022/04/22 08:04:59;;;;;;;6.38;3.63;;;;;;;;;;10452337;28;20189;-75
2022/04/22 08:09:59;;;;;;;10.30;3.43;;;;;;;;;;10438165;28;20035;-74
2022/04/22 08:15:03;;;;;;;7.93;3.70;;;;;;;;;;10447016;28;20033;-73
2022/04/22 08:20:04;;;;;;;10.85;4.28;;;;;;;;;;10433916;28;20024;-71
2022/04/22 08:25:04;;;;;;;6.70;4.10;;;;;;;;;;10466182;28;20056;-69
2022/04/22 08:30:05;;;;;;;7.97;3.30;;;;;;;;;;10449456;28;20113;-69
2022/04/22 08:35:08;;;;;;;5.93;4.32;;;;;;;;;;10460901;28;20052;-74
2022/04/22 08:40:09;;;;;;;5.28;3.55;;;;;;;;;;10453703;28;20036;-73
2022/04/22 08:45:09;;;;;;;10.93;3.10;;;;;;;;;;10447442;28;20033;-70
2022/04/22 08:50:13;;;;;;;7.97;3.08;;;;;;;;;;10439828;28;20036;-70
2022/04/22 08:55:14;;;;;;;9.07;3.83;;;;;;;;;;10482079;28;20028;-73
2022/04/22 09:00:14;;;;;;;14.55;3.00;;;;;;;;;;10468873;28;20035;-69
2022/04/22 09:05:15;;;;;;;5.22;3.17;;;;;;;;;;10451439;28;20601;-73
2022/04/22 09:10:15;;;;;;;9.50;2.87;;;;;;;;;;10471804;28;20029;-74
2022/04/22 09:15:15;;;;;;;5.07;2.90;;;;;;;;;;10454531;28;20076;-69
2022/04/22 09:20:16;;;;;;;5.07;3.43;;;;;;;;;;10442710;28;20077;-69
2022/04/22 09:25:23;;;;;;;4.03;2.33;;;;;;;;;;10451801;28;20301;-70
2022/04/22 09:30:25;;;;;;;7.82;2.50;;;;;;;;;;10438506;28;20028;-75
2022/04/22 09:35:27;;;;;;;8.60;2.55;;;;;;;;;;10445279;28;20114;-74
2022/04/22 09:45:46;;;;;;;3.72;2.13;;;;;;;;;;10449287;28;20024;-75
2022/04/22 09:50:53;;;;;;;14.80;2.40;;;;;;;;;;10430528;28;20036;-71
2022/04/22 09:55:55;;;;;;;4.53;2.33;;;;;;;;;;10458474;28;20500;-75
2022/04/22 10:00:58;;;;;;;7.53;2.30;;;;;;;;;;10435597;28;20039;-68
2022/04/22 10:05:59;;;;;;;4.88;2.42;;;;;;;;;;10434789;28;20484;-74
2022/04/22 10:11:01;;;;;;;7.75;2.75;;;;;;;;;;10451071;28;20101;-74
2022/04/22 10:16:02;;;;;;;6.15;2.55;;;;;;;;;;10462943;28;20055;-69
2022/04/22 10:21:03;;;;;;;4.68;2.30;;;;;;;;;;10457597;28;20024;-70
2022/04/22 10:26:05;;;;;;;6.85;2.10;;;;;;;;;;10436190;28;20023;-72
2022/04/22 10:31:05;;;;;;;4.90;2.42;;;;;;;;;;10467530;28;20183;-71
2022/04/22 10:36:06;;;;;;;6.93;2.35;;;;;;;;;;10465844;28;20060;-70
2022/04/22 10:41:13;;;;;;;5.68;2.20;;;;;;;;;;10467026;28;20024;-72
2022/04/22 10:51:52;;;;;;;5.22;2.08;;;;;;;;;;10464240;28;20033;-73
2022/04/22 10:57:04;;;;;;;5.10;2.28;;;;;;;;;;10459724;28;20032;-72
2022/04/22 11:02:24;;;;;;;6.68;2.10;;;;;;;;;;10446908;28;20055;-70
2022/04/22 11:07:43;;;;;;;6.20;1.92;;;;;;;;;;10432264;28;20033;-70
2022/04/22 11:12:53;;;;;;;3.38;1.88;;;;;;;;;;10445370;28;20036;-69
2022/04/22 11:17:56;;;;;;;5.68;2.60;;;;;;;;;;10426839;28;20540;-70
2022/04/22 11:22:56;;;;;;;9.00;2.80;;;;;;;;;;10444775;28;20033;-69
2022/04/22 11:27:57;;;;;;;4.25;2.63;;;;;;;;;;10449542;28;20037;-69
2022/04/22 11:33:16;;;;;;;5.63;2.60;;;;;;;;;;10427120;28;20657;-73
2022/04/22 11:38:32;;;;;;;6.72;2.60;;;;;;;;;;10400395;28;20405;-73
2022/04/22 11:43:32;;;;;;;5.50;2.83;;;;;;;;;;10422268;28;20123;-73
2022/04/22 11:48:32;;;;;;;5.47;2.83;;;;;;;;;;10428711;28;20502;-70
2022/04/22 11:53:33;;;;;;;7.60;3.40;;;;;;;;;;10399067;28;20033;-71
2022/04/22 11:58:33;;;;;;;6.93;2.70;;;;;;;;;;10410673;28;20022;-72
2022/04/22 12:08:54;;;;;;;6.03;3.17;;;;;;;;;;10410125;28;20013;-73
2022/04/22 12:13:55;;;;;;;6.72;3.22;;;;;;;;;;10401434;28;20429;-73
2022/04/22 12:18:55;;;;;;;8.55;3.63;;;;;;;;;;10394364;28;20077;-74
2022/04/22 12:24:00;;;;;;;8.15;3.53;;;;;;;;;;10395080;28;20036;-74
2022/04/22 12:29:11;;;;;;;9.27;3.42;;;;;;;;;;10408916;28;20512;-69
2022/04/22 12:34:15;;;;;;;8.82;3.42;;;;;;;;;;10428928;28;20118;-72
2022/04/22 12:39:31;;;;;;;5.47;3.10;;;;;;;;;;10432658;28;20060;-74
2022/04/22 12:44:31;;;;;;;4.95;3.65;;;;;;;;;;10457038;28;20447;-72
2022/04/22 12:55:00;;;;;;;7.97;4.07;;;;;;;;;;10449202;28;20424;-69
2022/04/22 13:00:00;;;;;;;6.53;3.45;;;;;;;;;;10443669;28;20017;-76
2022/04/22 13:05:05;;;;;;;5.33;3.47;;;;;;;;;;10435520;28;20408;-72
2022/04/22 13:10:05;;;;;;;7.20;4.03;;;;;;;;;;10432454;28;20079;-70
2022/04/22 13:15:10;;;;;;;8.30;4.03;;;;;;;;;;10472789;28;20040;-76
2022/04/22 13:20:12;;;;;;;8.18;4.57;;;;;;;;;;10469594;28;20067;-73
2022/04/22 13:25:13;;;;;;;6.95;4.40;;;;;;;;;;10455417;28;20020;-75
2022/04/22 13:30:15;;;;;;;8.13;3.97;;;;;;;;;;10454939;28;20027;-75
2022/04/22 13:35:16;;;;;;;11.93;5.35;;;;;;;;;;10467130;28;20044;-75
2022/04/22 13:40:16;;;;;;;6.47;4.35;;;;;;;;;;10463813;28;20021;-72
2022/04/22 13:55:54;;;;;;;10.82;4.85;;;;;;;;;;10479357;28;20020;-77
2022/04/22 14:00:54;;;;;;;7.75;3.92;;;;;;;;;;10446123;28;20024;-77
2022/04/22 14:05:55;;;;;;;7.70;4.47;;;;;;;;;;10447952;28;20563;-76
2022/04/22 14:10:55;;;;;;;7.05;4.00;;;;;;;;;;10470093;28;20535;-75
2022/04/22 14:15:55;;;;;;;5.65;4.10;;;;;;;;;;10463153;28;20031;-78
2022/04/22 14:20:56;;;;;;;11.50;3.92;;;;;;;;;;10465046;28;20027;-73
2022/04/22 14:25:56;;;;;;;8.68;4.55;;;;;;;;;;10470580;28;20029;-72
2022/04/22 14:30:57;;;;;;;9.20;5.45;;;;;;;;;;10468821;28;20029;-77
2022/04/22 14:35:57;;;;;;;8.95;5.00;;;;;;;;;;10469575;28;20581;-74
2022/04/22 14:40:57;;;;;;;9.38;4.60;;;;;;;;;;10469175;28;20047;-71
2022/04/22 14:45:59;;;;;;;6.95;5.40;;;;;;;;;;10469065;28;20387;-75
2022/04/22 14:50:59;;;;;;;6.85;5.10;;;;;;;;;;10445160;28;20425;-75
2022/04/22 14:55:59;;;;;;;6.72;4.65;;;;;;;;;;10442653;28;20075;-77
2022/04/22 15:00:59;;;;;;;9.50;4.57;;;;;;;;;;10427849;28;20017;-77
2022/04/22 15:06:00;;;;;;;7.00;4.47;;;;;;;;;;10445143;28;20116;-76
2022/04/22 15:11:00;;;;;;;10.55;5.75;;;;;;;;;;10456706;28;20778;-75
2022/04/22 15:16:00;;;;;;;7.00;4.50;;;;;;;;;;10467995;28;20020;-71
2022/04/22 15:26:20;;;;;;;16.85;4.05;;;;;;;;;;10487362;28;20128;-76
2022/04/22 15:31:20;;;;;;;9.32;3.53;;;;;;;;;;10467094;28;20119;-74
2022/04/22 15:36:21;;;;;;;7.70;4.18;;;;;;;;;;10468165;28;20420;-77
2022/04/22 15:41:22;;;;;;;10.75;3.50;;;;;;;;;;10468250;28;20017;-76
2022/04/22 15:46:23;;;;;;;8.63;4.07;;;;;;;;;;10467734;28;20453;-74
2022/04/22 15:51:24;;;;;;;6.45;3.70;;;;;;;;;;10467526;28;20021;-76
2022/04/22 15:56:27;;;;;;;11.13;4.53;;;;;;;;;;10466746;28;20020;-77
2022/04/22 16:01:35;;;;;;;6.45;4.03;;;;;;;;;;10484959;28;20472;-76
2022/04/22 16:06:42;;;;;;;;;;;;;;;;;;10433285;28;20421;-75
2022/04/22 16:17:02;;;;;;;5.55;3.78;;;;;;;;;;10485604;28;20080;-75
2022/04/22 16:22:03;;;;;;;7.40;3.97;;;;;;;;;;10433389;28;20148;-75
2022/04/22 16:27:03;;;;;;;7.05;4.30;;;;;;;;;;10433836;28;20029;-77
2022/04/22 16:32:03;;;;;;;8.63;4.40;;;;;;;;;;10462152;28;20052;-76
2022/04/22 16:37:04;;;;;;;6.87;3.40;;;;;;;;;;10495310;28;20028;-77
2022/04/22 16:42:04;;;;;;;5.37;3.57;;;;;;;;;;10516220;28;20266;-76
2022/04/22 16:47:09;;;;;;;9.48;3.97;;;;;;;;;;10527722;28;20055;-75
2022/04/22 16:52:10;;;;;;;9.93;4.13;;;;;;;;;;10432375;28;20040;-72
2022/04/22 16:57:10;;;;;;;6.95;3.13;;;;;;;;;;10431245;28;20417;-71
2022/04/22 17:02:12;;;;;;;13.97;3.70;;;;;;;;;;10427989;28;20032;-70
2022/04/22 17:07:12;;;;;;;7.85;3.85;;;;;;;;;;10448908;28;20025;-71
2022/04/22 17:12:14;;;;;;;12.82;4.63;;;;;;;;;;10429910;28;20380;-76
2022/04/22 17:22:39;;;;;;;8.50;4.68;;;;;;;;;;10470412;28;20041;-70
2022/04/22 17:27:40;;;;;;;8.52;4.53;;;;;;;;;;10446535;28;20029;-70
2022/04/22 17:32:40;;;;;;;11.70;5.05;;;;;;;;;;10434175;28;20076;-72
2022/04/22 17:37:41;;;;;;;10.37;4.70;;;;;;;;;;10432149;28;20017;-72
2022/04/22 17:42:41;;;;;;;10.77;6.60;;;;;;;;;;10452454;28;20024;-75
2022/04/22 17:47:42;;;;;;;13.63;5.30;;;;;;;;;;10441584;28;20029;-73
2022/04/22 17:52:42;;;;;;;6.65;4.80;;;;;;;;;;10459714;28;20036;-69
2022/04/22 17:57:42;;;;;;;7.20;4.70;;;;;;;;;;10449194;28;20020;-71
2022/04/22 18:02:43;;;;;;;9.33;4.30;;;;;;;;;;10450472;28;20325;-70
2022/04/22 18:07:43;;;;;;;7.55;4.25;;;;;;;;;;10467348;28;20283;-74
2022/04/22 18:12:43;;;;;;;11.90;4.28;;;;;;;;;;10452237;28;20028;-69
2022/04/22 18:17:44;;;;;;;13.20;5.97;;;;;;;;;;10466286;28;20078;-75
2022/04/22 18:22:44;;;;;;;9.07;4.57;;;;;;;;;;10455625;28;20032;-71
2022/04/22 18:27:45;;;;;;;7.00;4.10;;;;;;;;;;10455701;28;20159;-74
2022/04/22 18:32:46;;;;;;;14.70;5.55;;;;;;;;;;10454710;28;20060;-73
2022/04/22 18:37:48;;;;;;;9.15;4.43;;;;;;;;;;10451459;28;20542;-71
2022/04/22 18:42:49;;;;;;;11.05;5.20;;;;;;;;;;10466295;28;20467;-70
2022/04/22 18:47:50;;;;;;;8.97;4.90;;;;;;;;;;10451707;28;20032;-70
2022/04/22 18:52:51;;;;;;;9.82;5.43;;;;;;;;;;10450510;28;20124;-73
2022/04/22 18:57:52;;;;;;;10.75;4.70;;;;;;;;;;10457211;28;20029;-73
2022/04/22 19:03:10;;;;;;;9.13;4.82;;;;;;;;;;10449689;28;20036;-74
2022/04/22 19:08:11;;;;;;;11.13;5.47;;;;;;;;;;10456799;28;20039;-75
2022/04/22 19:13:12;;;;;;;10.93;5.80;;;;;;;;;;10454874;28;20131;-77
2022/04/22 19:18:12;;;;;;;18.90;6.97;;;;;;;;;;10455770;28;20077;-78
2022/04/22 19:23:14;;;;;;;13.23;6.60;;;;;;;;;;10432077;28;20044;-70
2022/04/22 19:28:14;;;;;;;13.63;4.85;;;;;;;;;;10429185;28;20499;-72
2022/04/22 19:33:15;;;;;;;19.33;6.70;;;;;;;;;;10450413;28;20127;-76
2022/04/22 19:43:34;;;;;;;11.52;6.43;;;;;;;;;;10449779;28;20029;-74
2022/04/22 19:48:35;;;;;;;15.68;6.35;;;;;;;;;;10448107;28;20024;-74
2022/04/22 19:53:35;;;;;;;18.52;7.00;;;;;;;;;;10433185;28;20025;-74
2022/04/22 19:58:36;;;;;;;18.67;6.87;;;;;;;;;;10449649;28;20017;-72
2022/04/22 20:03:36;;;;;;;14.88;7.03;;;;;;;;;;10415290;28;20654;-76
2022/04/22 20:08:36;;;;;;;16.05;6.88;;;;;;;;;;10436495;28;20024;-71
2022/04/22 20:13:36;;;;;;;13.30;6.78;;;;;;;;;;10447835;28;20021;-76
2022/04/22 20:18:37;;;;;;;10.37;5.57;;;;;;;;;;10432385;28;20136;-77
2022/04/22 20:23:37;;;;;;;14.30;6.97;;;;;;;;;;10429683;23;20129;-71
2022/04/22 20:28:38;;;;;;;10.10;6.17;;;;;;;;;;10424290;28;20017;-71
2022/04/22 20:33:38;;;;;;;9.68;6.28;;;;;;;;;;10431160;28;20275;-71
2022/04/22 20:43:58;;;;;;;15.45;6.05;;;;;;;;;;10448466;28;20453;-70
2022/04/22 20:48:58;;;;;;;15.43;6.45;;;;;;;;;;10413162;28;20029;-77
2022/04/22 20:53:59;;;;;;;15.27;6.60;;;;;;;;;;10430119;28;20471;-73
2022/04/22 20:58:59;;;;;;;14.50;7.10;;;;;;;;;;10429695;28;20028;-70
2022/04/22 21:04:00;;;;;;;15.43;7.07;;;;;;;;;;10430539;28;20504;-75
2022/04/22 21:09:01;;;;;;;19.98;7.00;;;;;;;;;;10430271;28;20270;-74
2022/04/22 21:14:01;;;;;;;15.27;7.43;;;;;;;;;;10429097;28;20481;-72
2022/04/22 21:19:01;;;;;;;13.18;7.53;;;;;;;;;;10447622;28;20029;-71
2022/04/22 21:24:02;;;;;;;15.27;6.20;;;;;;;;;;10429215;28;20578;-74
2022/04/22 21:29:02;;;;;;;14.38;6.63;;;;;;;;;;10447563;28;20490;-71
2022/04/22 21:34:02;;;;;;;17.80;8.07;;;;;;;;;;10444880;28;20040;-71
2022/04/22 21:39:02;;;;;;;12.18;6.55;;;;;;;;;;10446270;28;20017;-71
2022/04/22 21:44:03;;;;;;;14.18;5.43;;;;;;;;;;10428875;28;20552;-72
2022/04/22 21:49:03;;;;;;;13.43;5.78;;;;;;;;;;10447079;28;20017;-71
2022/04/22 21:54:04;;;;;;;15.57;5.33;;;;;;;;;;10428112;28;20024;-75
2022/04/22 21:59:04;;;;;;;16.45;8.65;;;;;;;;;;10446822;28;20028;-70
2022/04/22 22:04:05;;;;;;;17.92;5.75;;;;;;;;;;10427487;28;20074;-73
2022/04/22 22:09:06;;;;;;;14.70;5.97;;;;;;;;;;10427812;28;20037;-73
2022/04/22 22:14:06;;;;;;;13.15;5.53;;;;;;;;;;10428245;28;20519;-74
2022/04/22 22:19:07;;;;;;;12.60;5.53;;;;;;;;;;10425058;28;20450;-71
2022/04/22 22:24:07;;;;;;;12.15;4.97;;;;;;;;;;10427271;28;20081;-74
2022/04/22 22:29:07;;;;;;;8.53;5.30;;;;;;;;;;10425118;28;20052;-77
2022/04/22 22:34:08;;;;;;;14.57;6.22;;;;;;;;;;10424723;28;20021;-70
2022/04/22 22:39:08;;;;;;;14.05;6.95;;;;;;;;;;10444707;28;20777;-72
2022/04/22 22:44:10;;;;;;;10.65;5.68;;;;;;;;;;10425416;28;20033;-71
2022/04/22 22:49:10;;;;;;;8.52;4.20;;;;;;;;;;10424476;28;20021;-72
2022/04/22 22:54:10;;;;;;;13.77;5.00;;;;;;;;;;10426854;28;20408;-71
2022/04/22 22:59:10;;;;;;;10.77;4.68;;;;;;;;;;10407674;28;20032;-71
2022/04/22 23:04:11;;;;;;;8.40;3.78;;;;;;;;;;10426156;28;20440;-71
2022/04/22 23:09:11;;;;;;;12.85;4.85;;;;;;;;;;10423473;28;20516;-75
2022/04/22 23:14:12;;;;;;;10.15;3.75;;;;;;;;;;10424302;28;20455;-75
2022/04/22 23:19:13;;;;;;;8.50;3.60;;;;;;;;;;10423470;28;20021;-73
2022/04/22 23:24:13;;;;;;;10.77;3.75;;;;;;;;;;10422496;28;20053;-70
2022/04/22 23:29:13;;;;;;;4.37;2.70;;;;;;;;;;10423001;28;20021;-76
2022/04/22 23:34:13;;;;;;;8.20;3.03;;;;;;;;;;10426467;28;20039;-72
2022/04/22 23:39:14;;;;;;;4.30;3.17;;;;;;;;;;10442343;28;20021;-70
2022/04/22 23:44:16;;;;;;;5.40;2.55;;;;;;;;;;10426192;28;20020;-72
2022/04/22 23:49:17;;;;;;;5.82;2.85;;;;;;;;;;10444658;28;20426;-76
2022/04/22 23:54:18;;;;;;;5.93;2.95;;;;;;;;;;10425427;28;20458;-73
2022/04/22 23:59:18;;;;;;;9.20;2.65;;;;;;;;;;10407339;28;20051;-72
